Time;durP1;ratioP1;P1;durP2;ratioP2;P2;SDS_P1;SDS_P2;PMS_P1;PMS_P2;Temp;Humidity;BMP_temperature;BMP_pressure;BME280_temperature;BME280_humidity;BME280_pressure;Samples;Min_cycle;Max_cycle;Signal;HPM_P1;HPM_P2
2021/09/15 00:00:08;;;;;;;;;17.67;16.00;;;;;22.61;75.10;100708.53;5057054;28;45557;-76
2021/09/15 00:02:33;;;;;;;;;10.33;8.33;;;;;22.62;75.13;100717.47;5056732;28;46659;-75
2021/09/15 00:04:59;;;;;;;;;12.33;12.33;;;;;22.61;75.35;100718.41;5056961;28;45415;-75
2021/09/15 00:07:24;;;;;;;;;10.67;10.67;;;;;22.59;75.30;100714.91;5055304;28;50083;-75
2021/09/15 00:09:49;;;;;;;;;32.00;30.67;;;;;22.58;75.28;100711.31;5056720;28;54087;-76
2021/09/15 00:12:15;;;;;;;;;9.00;9.00;;;;;22.55;75.36;100706.09;5056189;28;61161;-75
2021/09/15 00:14:40;;;;;;;;;7.00;7.00;;;;;22.56;74.83;100706.97;5056264;28;51403;-76
2021/09/15 00:17:06;;;;;;;;;19.00;19.00;;;;;22.55;75.12;100703.41;5057001;28;45992;-75
2021/09/15 00:19:31;;;;;;;;;9.00;8.67;;;;;22.52;75.43;100705.31;5056946;28;45490;-76
2021/09/15 00:21:56;;;;;;;;;10.00;8.00;;;;;22.52;75.27;100706.19;5056147;28;59708;-75
2021/09/15 00:24:22;;;;;;;;;17.33;17.33;;;;;22.52;75.63;100697.25;5055419;28;58933;-75
2021/09/15 00:26:47;;;;;;;;;9.67;9.67;;;;;22.51;75.07;100700.88;5056723;28;45942;-76
2021/09/15 00:29:12;;;;;;;;;9.67;8.67;;;;;22.46;75.15;100693.00;5057128;28;45511;-75
2021/09/15 00:31:38;;;;;;;;;10.67;10.67;;;;;22.48;75.38;100701.91;5049377;28;60881;-76
2021/09/15 00:34:03;;;;;;;;;11.67;10.00;;;;;22.46;75.46;100695.69;5056882;28;45303;-75
2021/09/15 00:36:29;;;;;;;;;9.67;9.33;;;;;22.44;75.62;100697.56;5055457;28;51834;-76
2021/09/15 00:38:54;;;;;;;;;10.33;9.33;;;;;22.41;75.46;100689.59;5056845;28;52384;-76
2021/09/15 00:41:19;;;;;;;;;7.00;6.00;;;;;22.42;74.82;100688.66;5056688;28;47273;-75
2021/09/15 00:43:58;;;;;;;;;10.00;9.00;;;;;22.41;75.61;100687.78;5056994;28;45157;-76
2021/09/15 00:46:24;;;;;;;;;9.00;7.67;;;;;22.36;75.75;100670.97;5056657;28;45502;-76
2021/09/15 00:48:49;;;;;;;;;9.67;9.00;;;;;22.39;75.74;100689.69;5056789;28;45363;-76
2021/09/15 00:51:15;;;;;;;;;7.00;7.00;;;;;22.37;75.87;100687.97;5056625;28;55236;-76
2021/09/15 00:53:40;;;;;;;;;9.00;6.33;;;;;22.36;75.72;100681.72;5056341;28;45743;-76
2021/09/15 00:56:06;;;;;;;;;9.00;9.00;;;;;22.33;76.23;100687.25;5038708;28;45515;-76
2021/09/15 00:58:31;;;;;;;;;6.33;6.33;;;;;22.33;76.16;100691.75;5056242;28;45439;-76
2021/09/15 01:00:56;;;;;;;;;7.33;6.00;;;;;22.30;75.88;100697.22;5048535;28;59884;-76
2021/09/15 01:03:22;;;;;;;;;11.00;7.00;;;;;22.29;76.72;100692.81;5055304;28;59024;-76
2021/09/15 01:05:47;;;;;;;;;8.33;7.00;;;;;22.27;76.73;100690.19;5055742;28;53626;-75
2021/09/15 01:08:13;;;;;;;;;6.00;6.00;;;;;22.25;76.50;100693.84;5055958;28;49823;-76
2021/09/15 01:10:38;;;;;;;;;9.00;6.33;;;;;22.18;76.57;100691.41;5056122;28;52140;-75
2021/09/15 01:13:04;;;;;;;;;8.33;8.00;;;;;22.17;76.98;100683.41;5032232;28;57610;-76
2021/09/15 01:15:29;;;;;;;;;9.33;7.00;;;;;22.18;76.71;100679.78;5021526;28;53427;-77
2021/09/15 01:17:54;;;;;;;;;8.67;7.00;;;;;22.13;76.60;100687.16;5056370;28;45230;-76
2021/09/15 01:20:20;;;;;;;;;6.67;6.67;;;;;22.16;76.33;100687.03;5055040;28;57673;-75
2021/09/15 01:22:45;;;;;;;;;10.33;7.00;;;;;22.12;76.26;100685.41;5055248;28;57961;-75
2021/09/15 01:25:10;;;;;;;;;8.33;7.33;;;;;22.14;76.76;100694.28;5055634;28;54194;-75
2021/09/15 01:27:36;;;;;;;;;10.00;7.00;;;;;22.11;77.26;100683.66;5056378;28;45627;-76
2021/09/15 01:30:02;;;;;;;;;10.00;7.00;;;;;22.14;76.60;100683.50;5054116;28;53292;-77
2021/09/15 01:32:27;;;;;;;;;6.67;5.00;;;;;22.14;76.57;100678.13;5055858;28;45402;-76
2021/09/15 01:34:53;;;;;;;;;7.33;7.33;;;;;22.12;76.63;100669.25;5055201;28;53833;-76
2021/09/15 01:37:18;;;;;;;;;7.67;5.33;;;;;22.09;76.22;100659.44;5055876;28;45328;-77
2021/09/15 01:39:44;;;;;;;;;6.00;6.00;;;;;22.13;76.58;100673.69;5054930;28;46449;-75
2021/09/15 01:42:09;;;;;;;;;10.33;6.67;;;;;22.13;76.65;100679.06;5037713;28;45463;-76
2021/09/15 01:44:36;;;;;;;;;7.00;7.00;;;;;22.14;77.33;100675.44;5053348;28;45514;-76
2021/09/15 01:47:03;;;;;;;;;9.00;7.00;;;;;22.13;76.82;100679.06;5050849;28;45384;-75
2021/09/15 01:49:29;;;;;;;;;9.00;8.00;;;;;22.12;76.60;100680.03;5054237;28;46703;-76
2021/09/15 01:51:55;;;;;;;;;11.33;8.00;;;;;22.07;76.89;100666.72;5047862;28;45570;-75
2021/09/15 01:54:20;;;;;;;;;7.33;7.33;;;;;22.09;76.34;100672.03;5075624;28;45458;-76
2021/09/15 01:56:45;;;;;;;;;8.00;7.00;;;;;22.03;76.62;100670.44;5073034;28;55045;-76
2021/09/15 01:59:11;;;;;;;;;11.33;8.33;;;;;22.06;77.07;100680.22;5070528;28;62079;-75
2021/09/15 02:01:36;;;;;;;;;7.00;6.33;;;;;22.04;76.86;100679.41;5079070;28;53955;-76
2021/09/15 02:04:02;;;;;;;;;9.33;7.33;;;;;22.03;76.70;100681.22;5078824;28;49606;-76
2021/09/15 02:06:27;;;;;;;;;7.67;7.67;;;;;22.02;77.14;100673.22;5056368;28;45405;-76
2021/09/15 02:08:52;;;;;;;;;8.00;8.00;;;;;22.03;76.64;100689.28;5078793;28;57972;-75
2021/09/15 02:11:18;;;;;;;;;8.00;7.33;;;;;22.01;76.60;100691.16;5078420;28;57584;-76
2021/09/15 02:13:43;;;;;;;;;7.33;7.33;;;;;22.02;76.06;100702.78;5079396;28;45686;-75
2021/09/15 02:16:08;;;;;;;;;7.67;7.00;;;;;22.05;76.62;100699.97;5079211;28;49019;-76
2021/09/15 02:18:34;;;;;;;;;11.00;8.00;;;;;22.04;76.86;100695.53;5078465;28;45974;-76
2021/09/15 02:20:59;;;;;;;;;12.67;9.33;;;;;22.04;76.32;100691.03;5078486;28;60577;-76
2021/09/15 02:23:25;;;;;;;;;8.67;8.00;;;;;22.05;77.01;100691.91;5077914;28;55561;-76
2021/09/15 02:25:50;;;;;;;;;12.67;9.67;;;;;22.03;76.49;100688.41;5078850;28;52198;-76
2021/09/15 02:28:15;;;;;;;;;8.00;8.00;;;;;22.04;76.97;100695.53;5077985;28;61880;-75
2021/09/15 02:30:41;;;;;;;;;9.00;9.00;;;;;22.00;76.64;100688.50;5077928;28;59243;-75
2021/09/15 02:33:06;;;;;;;;;10.00;9.00;;;;;21.99;76.63;100679.56;5079093;28;45357;-77
2021/09/15 02:35:32;;;;;;;;;14.00;12.33;;;;;21.97;76.97;100682.31;5078846;28;45359;-75
2021/09/15 02:37:57;;;;;;;;;11.67;10.00;;;;;22.01;77.08;100690.28;5078831;28;46500;-75
2021/09/15 02:40:22;;;;;;;;;11.67;11.67;;;;;22.01;76.98;100682.22;5078411;28;47581;-76
2021/09/15 02:42:48;;;;;;;;;10.00;8.33;;;;;21.98;76.54;100684.06;5078671;28;45950;-75
2021/09/15 02:45:13;;;;;;;;;9.00;8.33;;;;;21.99;76.70;100693.00;5078510;28;50332;-75
2021/09/15 02:47:38;;;;;;;;;14.00;9.67;;;;;21.99;76.59;100687.63;5078277;28;46413;-76
2021/09/15 02:50:04;;;;;;;;;13.67;12.00;;;;;21.97;76.60;100687.69;5078328;28;54909;-75
2021/09/15 02:52:29;;;;;;;;;13.00;12.00;;;;;21.95;77.06;100697.66;5080021;27;45296;-76
2021/09/15 02:54:55;;;;;;;;;11.67;11.67;;;;;21.94;76.95;100705.75;5061178;28;45322;-76
2021/09/15 02:57:20;;;;;;;;;14.00;11.67;;;;;21.92;76.89;100705.81;5059693;28;61699;-75
2021/09/15 02:59:46;;;;;;;;;9.00;9.00;;;;;21.93;77.25;100693.25;5058042;28;45232;-75
2021/09/15 03:02:11;;;;;;;;;13.33;12.00;;;;;21.91;77.42;100698.69;5070645;28;52829;-75
2021/09/15 03:04:36;;;;;;;;;11.67;10.00;;;;;21.91;77.07;100696.00;5075434;28;48586;-76
2021/09/15 03:07:02;;;;;;;;;12.33;11.67;;;;;21.90;76.90;100685.31;5084353;27;63899;-76
2021/09/15 03:09:27;;;;;;;;;11.67;11.67;;;;;21.90;77.12;100694.25;5072860;28;45364;-75
2021/09/15 03:11:53;;;;;;;;;12.67;10.33;;;;;21.88;77.61;100688.03;5071990;28;45924;-76
2021/09/15 03:14:19;;;;;;;;;9.33;9.33;;;;;21.88;77.09;100689.84;5071976;28;52147;-75
2021/09/15 03:16:44;;;;;;;;;13.33;11.00;;;;;21.86;77.54;100681.88;5077384;28;46656;-75
2021/09/15 03:19:09;;;;;;;;;13.67;10.00;;;;;21.87;77.73;100685.44;5063507;28;45438;-76
2021/09/15 03:21:35;;;;;;;;;13.33;9.67;;;;;21.84;77.49;100681.06;5066268;28;53850;-76
2021/09/15 03:24:00;;;;;;;;;13.33;11.33;;;;;21.88;77.74;100688.03;5061254;28;45530;-76
2021/09/15 03:26:26;;;;;;;;;11.33;10.33;;;;;21.88;77.92;100685.34;5044081;28;45655;-75
2021/09/15 03:28:51;;;;;;;;;17.67;11.67;;;;;21.87;77.41;100682.75;5058798;28;52766;-76
2021/09/15 03:31:16;;;;;;;;;10.33;9.67;;;;;21.88;77.60;100690.72;5064676;28;51730;-76
2021/09/15 03:33:42;;;;;;;;;14.67;12.33;;;;;21.85;77.79;100680.13;5077311;28;49258;-77
2021/09/15 03:36:07;;;;;;;;;12.67;11.00;;;;;21.89;78.17;100686.22;5076991;28;48404;-76
2021/09/15 03:38:33;;;;;;;;;13.00;10.00;;;;;21.88;77.26;100688.03;5073840;28;45473;-75
2021/09/15 03:40:58;;;;;;;;;10.33;9.67;;;;;21.90;77.97;100691.56;5077906;28;45303;-75
2021/09/15 03:43:23;;;;;;;;;8.67;8.67;;;;;21.90;77.16;100696.94;5073008;28;51906;-76
2021/09/15 03:45:49;;;;;;;;;9.00;9.00;;;;;21.92;78.08;100700.44;5072479;28;57128;-76
2021/09/15 03:48:14;;;;;;;;;8.00;8.00;;;;;21.89;77.45;100694.28;5065646;28;45461;-75
2021/09/15 03:50:40;;;;;;;;;10.00;7.00;;;;;21.91;77.46;100703.19;5070058;28;49905;-75
2021/09/15 03:53:05;;;;;;;;;8.00;7.00;;;;;21.90;76.74;100702.31;5071091;28;51972;-75
2021/09/15 03:55:30;;;;;;;;;9.33;8.00;;;;;21.91;77.65;100697.81;5065657;28;58687;-76
2021/09/15 03:57:56;;;;;;;;;8.33;8.33;;;;;21.91;77.83;100700.50;5066309;28;54603;-76
2021/09/15 04:00:21;;;;;;;;;13.00;9.00;;;;;21.91;78.03;100704.06;5071990;28;50094;-76
2021/09/15 04:02:46;;;;;;;;;8.67;7.00;;;;;21.91;77.87;100701.38;5059284;28;45464;-76
2021/09/15 04:05:12;;;;;;;;;7.00;7.00;;;;;21.90;78.11;100698.75;5067177;28;55997;-76
2021/09/15 04:07:39;;;;;;;;;11.67;8.67;;;;;21.90;77.54;100704.13;5083090;27;45451;-75
2021/09/15 04:10:05;;;;;;;;;8.00;7.67;;;;;21.90;77.36;100712.19;5072177;28;45363;-75
2021/09/15 04:12:30;;;;;;;;;8.67;8.00;;;;;21.90;77.40;100714.91;5077446;28;45506;-76
2021/09/15 04:14:56;;;;;;;;;9.33;8.33;;;;;21.87;77.38;100707.81;5077233;28;45493;-76
2021/09/15 04:17:21;;;;;;;;;10.00;8.00;;;;;21.87;77.35;100705.13;5062101;28;47382;-75
2021/09/15 04:19:47;;;;;;;;;10.00;10.00;;;;;21.86;77.85;100710.56;5064393;28;51964;-76
2021/09/15 04:22:18;;;;;;;;;7.33;7.33;;;;;21.84;78.63;100707.03;5058947;28;47051;-77
2021/09/15 04:32:59;;;;;;;;;14.00;11.33;;;;;21.43;80.88;100701.38;5070621;28;45541;-77
2021/09/15 04:35:25;;;;;;;;;10.67;8.00;;;;;21.38;81.36;100692.63;5063785;28;47539;-76
2021/09/15 04:38:01;;;;;;;;;12.00;9.33;;;;;21.35;81.21;100690.91;5073646;28;45437;-75
2021/09/15 04:40:27;;;;;;;;;10.33;9.33;;;;;21.35;80.97;100696.28;5075395;28;54104;-76
2021/09/15 04:42:52;;;;;;;;;9.67;9.00;;;;;21.35;80.95;100695.41;5071017;28;48462;-76
2021/09/15 04:45:18;;;;;;;;;6.33;6.33;;;;;21.34;80.54;100702.59;5069202;28;52451;-75
2021/09/15 04:47:43;;;;;;;;;9.33;9.33;;;;;21.34;81.16;100694.53;5068944;28;45411;-76
2021/09/15 04:50:09;;;;;;;;;9.67;9.33;;;;;21.36;81.77;100699.84;5063446;28;56327;-77
2021/09/15 04:52:35;;;;;;;;;8.00;8.00;;;;;21.35;81.38;100698.97;5073714;28;49799;-79
2021/09/15 04:55:00;;;;;;;;;11.33;10.00;;;;;21.35;80.66;100693.59;5063314;28;47814;-81
2021/09/15 04:57:25;;;;;;;;;10.00;9.67;;;;;21.36;81.00;100700.75;5074849;28;58311;-80
2021/09/15 04:59:51;;;;;;;;;13.33;10.00;;;;;21.37;80.71;100707.84;5075436;28;45289;-80
2021/09/15 05:02:16;;;;;;;;;13.00;9.00;;;;;21.38;81.11;100714.97;5077224;28;52146;-79
2021/09/15 05:04:41;;;;;;;;;10.67;9.67;;;;;21.38;80.62;100711.41;5079542;28;56157;-79
2021/09/15 05:07:07;;;;;;;;;8.00;7.33;;;;;21.38;80.53;100704.22;5074901;27;59720;-79
2021/09/15 05:09:32;;;;;;;;;9.33;9.33;;;;;21.39;80.15;100702.41;5068135;28;45323;-80
2021/09/15 05:11:58;;;;;;;;;9.33;9.33;;;;;21.40;79.91;100707.72;5064800;28;45543;-76
2021/09/15 05:14:23;;;;;;;;;10.67;10.00;;;;;21.41;80.37;100714.88;5063373;28;55742;-78
2021/09/15 05:16:48;;;;;;;;;11.67;9.67;;;;;21.41;80.21;100714.88;5073606;28;45438;-76
2021/09/15 05:19:14;;;;;;;;;14.00;10.33;;;;;21.38;80.10;100708.72;5065635;28;54417;-72
2021/09/15 05:21:39;;;;;;;;;13.33;11.00;;;;;21.42;79.65;100718.44;5066913;28;45798;-74
2021/09/15 05:24:05;;;;;;;;;10.00;8.33;;;;;21.43;79.84;100710.31;5070979;28;60071;-73
2021/09/15 05:26:30;;;;;;;;;9.00;7.00;;;;;21.40;79.99;100715.78;5070990;28;45554;-76
2021/09/15 05:28:55;;;;;;;;;8.67;8.00;;;;;21.44;80.08;100712.06;5075670;28;51315;-77
2021/09/15 05:31:21;;;;;;;;;13.67;7.00;;;;;21.44;79.73;100719.25;5072470;28;45553;-75
2021/09/15 05:33:46;;;;;;;;;10.67;10.33;;;;;21.43;79.43;100718.38;5074253;27;55693;-74
2021/09/15 05:36:12;;;;;;;;;12.67;8.33;;;;;21.44;79.34;100720.13;5077023;27;51611;-73
2021/09/15 05:38:37;;;;;;;;;10.00;8.00;;;;;21.38;79.78;100714.09;5090799;22;45339;-73
2021/09/15 05:41:03;;;;;;;;;9.33;9.33;;;;;21.40;79.46;100723.84;5100314;27;45302;-74
2021/09/15 05:43:28;;;;;;;;;9.33;8.33;;;;;21.47;80.11;100726.34;5100429;22;46350;-75
2021/09/15 05:45:54;;;;;;;;;8.33;8.00;;;;;21.46;79.37;100730.81;5114405;22;46678;-75
2021/09/15 05:48:19;;;;;;;;;11.00;9.33;;;;;21.48;79.52;100731.66;5083496;22;52319;-74
2021/09/15 05:53:14;;;;;;;;;11.00;10.00;;;;;21.51;78.79;100736.03;5067971;22;74329;-76
2021/09/15 05:55:39;;;;;;;;;12.00;10.33;;;;;21.51;79.47;100730.66;5095021;22;45378;-76
2021/09/15 05:58:05;;;;;;;;;11.33;8.33;;;;;21.52;79.45;100737.78;5094832;22;46168;-75
2021/09/15 06:00:30;;;;;;;;;11.33;9.33;;;;;21.53;79.66;100744.94;5097181;22;49218;-76
2021/09/15 06:02:56;;;;;;;;;15.33;9.00;;;;;21.52;79.60;100749.44;5114931;22;47392;-75
2021/09/15 06:05:21;;;;;;;;;12.00;9.00;;;;;21.52;79.61;100749.44;5077276;28;45589;-76
2021/09/15 06:07:47;;;;;;;;;12.33;10.67;;;;;21.53;79.57;100743.13;5101441;22;45540;-75
2021/09/15 06:10:12;;;;;;;;;12.33;12.33;;;;;21.54;79.32;100747.56;5048709;28;48579;-75
2021/09/15 06:12:38;;;;;;;;;9.00;8.33;;;;;21.55;79.59;100743.91;5043834;28;59464;-75
2021/09/15 06:15:03;;;;;;;;;10.00;10.00;;;;;21.54;79.79;100744.00;5052225;28;45463;-78
2021/09/15 06:17:29;;;;;;;;;12.00;10.33;;;;;21.56;78.87;100739.44;5048878;28;45483;-76
2021/09/15 06:19:54;;;;;;;;;12.00;9.67;;;;;21.58;79.03;100748.31;5049894;28;45637;-77
2021/09/15 06:22:19;;;;;;;;;9.00;9.00;;;;;21.58;79.18;100746.50;5035232;28;61033;-76
2021/09/15 06:24:48;;;;;;;;;10.67;8.67;;;;;21.62;79.02;100763.38;5051420;28;57944;-76
2021/09/15 06:27:16;;;;;;;;;9.67;8.33;;;;;21.62;78.75;100758.00;5048577;28;45505;-76
2021/09/15 06:29:42;;;;;;;;;12.00;8.67;;;;;21.65;79.03;100760.59;5056465;28;45574;-74
2021/09/15 06:32:07;;;;;;;;;8.00;8.00;;;;;21.66;79.11;100759.66;5055816;28;60482;-74
2021/09/15 06:34:33;;;;;;;;;11.33;10.33;;;;;21.68;79.12;100756.00;5057350;28;49706;-74
2021/09/15 06:36:59;;;;;;;;;9.67;7.67;;;;;21.70;78.69;100759.50;5054905;28;45499;-74
2021/09/15 06:39:24;;;;;;;;;9.00;9.00;;;;;21.72;78.75;100759.44;5053039;28;50280;-72
2021/09/15 06:41:49;;;;;;;;;10.67;10.00;;;;;21.75;78.17;100766.53;5051231;28;60782;-72
2021/09/15 06:44:15;;;;;;;;;9.33;8.33;;;;;21.77;78.28;100764.66;5047676;28;56780;-72
2021/09/15 06:46:40;;;;;;;;;13.67;11.00;;;;;21.78;78.31;100767.28;5048860;28;45362;-71
2021/09/15 06:49:06;;;;;;;;;14.00;10.00;;;;;21.78;78.68;100761.91;5048228;28;45623;-74
2021/09/15 06:51:31;;;;;;;;;8.33;8.33;;;;;21.79;78.64;100771.75;5026143;28;46644;-74
2021/09/15 06:53:56;;;;;;;;;8.33;8.00;;;;;21.79;78.29;100771.75;5036317;28;55122;-72
2021/09/15 06:56:22;;;;;;;;;12.67;10.33;;;;;21.79;79.50;100769.06;5047394;28;45732;-74
2021/09/15 06:58:47;;;;;;;;;8.00;8.00;;;;;21.78;78.16;100769.97;5052250;28;50206;-72
2021/09/15 07:01:13;;;;;;;;;9.00;9.00;;;;;21.83;78.85;100770.66;5051906;28;53566;-72
2021/09/15 07:03:38;;;;;;;;;10.00;10.00;;;;;21.85;78.82;100776.00;5054243;28;45763;-72
2021/09/15 07:06:03;;;;;;;;;11.33;10.00;;;;;21.87;79.19;100775.00;5037083;28;45513;-73
2021/09/15 07:08:29;;;;;;;;;13.33;10.67;;;;;21.91;78.95;100778.47;5069572;28;45472;-74
2021/09/15 07:10:54;;;;;;;;;13.00;11.00;;;;;21.91;78.86;100771.28;5073047;28;49534;-73
2021/09/15 07:13:19;;;;;;;;;12.33;10.67;;;;;21.94;78.69;100781.94;5074223;28;57101;-72
2021/09/15 07:15:45;;;;;;;;;14.33;13.33;;;;;21.96;78.47;100785.44;5067951;28;45839;-72
2021/09/15 07:18:10;;;;;;;;;11.67;10.67;;;;;21.96;78.65;100785.44;5068805;28;53901;-71
2021/09/15 07:20:36;;;;;;;;;13.67;10.00;;;;;21.98;78.38;100785.38;5068060;28;46190;-73
2021/09/15 07:23:01;;;;;;;;;14.67;12.33;;;;;21.98;78.34;100793.44;5065062;28;45454;-71
2021/09/15 07:25:27;;;;;;;;;10.33;8.67;;;;;21.96;77.88;100789.94;5066551;28;50228;-71
2021/09/15 07:27:55;;;;;;;;;16.00;11.33;;;;;21.94;78.36;100792.69;5068831;28;56220;-74
2021/09/15 07:30:20;;;;;;;;;12.67;11.33;;;;;21.93;78.56;100795.41;5072688;28;46627;-73
2021/09/15 07:32:46;;;;;;;;;14.00;11.67;;;;;21.93;78.45;100803.47;5068780;28;46262;-75
2021/09/15 07:35:13;;;;;;;;;14.33;11.33;;;;;21.95;79.09;100799.81;5072063;27;52516;-71
2021/09/15 07:37:38;;;;;;;;;10.67;10.33;;;;;21.96;78.78;100796.19;5070615;28;45617;-73
2021/09/15 07:40:05;;;;;;;;;13.67;11.00;;;;;21.94;78.39;100799.84;5193903;22;46081;-75
2021/09/15 07:42:30;;;;;;;;;9.67;9.67;;;;;21.96;78.06;100804.25;5099366;27;45498;-74
2021/09/15 07:44:56;;;;;;;;;10.00;9.33;;;;;22.00;78.02;100805.03;5104229;27;54469;-74
2021/09/15 07:47:21;;;;;;;;;13.33;11.00;;;;;22.03;77.78;100809.41;5118041;27;45421;-77
2021/09/15 07:49:47;;;;;;;;;11.67;11.00;;;;;22.05;77.68;100799.44;5099311;27;49451;-73
2021/09/15 07:52:13;;;;;;;;;12.67;9.33;;;;;22.10;78.65;100800.16;5068587;22;45877;-75
2021/09/15 07:54:38;;;;;;;;;13.00;11.33;;;;;22.16;78.14;100803.56;5075773;27;45321;-74
2021/09/15 07:57:04;;;;;;;;;11.67;10.67;;;;;22.19;77.54;100800.72;5079628;27;45690;-74
2021/09/15 07:59:29;;;;;;;;;11.00;10.00;;;;;22.23;77.80;100804.19;5076324;27;47374;-74
2021/09/15 08:01:55;;;;;;;;;14.33;10.00;;;;;22.29;77.82;100803.97;5076061;27;53738;-74
2021/09/15 08:04:20;;;;;;;;;12.33;12.33;;;;;22.37;77.38;100809.94;5076540;27;51482;-75
2021/09/15 08:06:46;;;;;;;;;13.00;10.00;;;;;22.45;77.89;100807.81;5076888;27;51368;-74
2021/09/15 08:09:11;;;;;;;;;12.67;10.00;;;;;22.45;77.41;100806.94;5074854;27;60427;-77
2021/09/15 08:11:36;;;;;;;;;13.67;11.00;;;;;22.46;77.48;100812.25;5071148;27;57881;-76
2021/09/15 08:14:02;;;;;;;;;16.00;11.67;;;;;22.42;77.60;100821.38;5074348;27;45826;-75
2021/09/15 08:16:27;;;;;;;;;13.33;11.00;;;;;22.37;77.16;100815.31;5070584;27;45470;-72
2021/09/15 08:18:53;;;;;;;;;11.67;11.00;;;;;22.36;77.38;100818.94;5075428;27;46352;-72
2021/09/15 08:21:18;;;;;;;;;14.33;10.67;;;;;22.33;77.38;100813.69;5083279;27;45461;-72
2021/09/15 08:23:43;;;;;;;;;13.33;11.00;;;;;22.32;77.76;100821.78;5076147;27;49227;-74
2021/09/15 08:26:09;;;;;;;;;12.33;11.00;;;;;22.28;77.58;100823.72;5076438;27;45479;-77
2021/09/15 08:28:36;;;;;;;;;14.00;11.00;;;;;22.24;77.64;100824.78;5075852;28;55473;-74
2021/09/15 08:31:05;;;;;;;;;17.00;14.67;;;;;22.14;77.48;100812.59;5075915;27;45464;-73
2021/09/15 08:33:31;;;;;;;;;23.33;18.00;;;;;22.00;77.96;100802.34;5078703;27;45576;-74
2021/09/15 08:35:56;;;;;;;;;17.00;13.33;;;;;22.11;78.57;100826.19;5077644;27;45421;-74
2021/09/15 08:38:22;;;;;;;;;12.33;11.00;;;;;22.12;78.04;100826.13;5075791;27;45264;-74
2021/09/15 08:40:47;;;;;;;;;11.33;11.33;;;;;22.12;78.61;100820.75;5080055;27;56068;-74
2021/09/15 08:43:12;;;;;;;;;16.67;15.33;;;;;22.16;78.08;100824.19;5073435;27;53184;-74
2021/09/15 08:45:38;;;;;;;;;14.00;13.00;;;;;22.18;78.33;100827.69;5075321;27;52024;-75
2021/09/15 08:48:03;;;;;;;;;12.33;12.00;;;;;22.17;77.51;100826.81;5075434;27;47807;-75
2021/09/15 08:50:29;;;;;;;;;16.00;14.00;;;;;22.15;78.11;100835.88;5074856;27;45610;-75
2021/09/15 08:52:55;;;;;;;;;14.33;12.33;;;;;22.09;78.12;100826.19;5085282;27;45423;-74
2021/09/15 08:55:20;;;;;;;;;15.33;15.33;;;;;22.09;78.23;100836.06;5069721;27;51171;-74
2021/09/15 08:57:45;;;;;;;;;19.67;15.00;;;;;22.08;78.36;100837.00;5071202;27;61444;-73
2021/09/15 09:00:11;;;;;;;;;18.67;15.33;;;;;22.02;78.98;100837.22;5071130;27;45536;-75
2021/09/15 09:02:38;;;;;;;;;16.00;16.00;;;;;22.05;78.12;100839.78;5074248;27;45333;-77
2021/09/15 09:05:04;;;;;;;;;17.33;17.33;;;;;22.02;78.95;100839.91;5074707;27;45521;-76
2021/09/15 09:07:30;;;;;;;;;16.00;14.00;;;;;22.00;79.23;100840.00;5080214;27;47596;-74
2021/09/15 09:09:57;;;;;;;;;16.67;12.67;;;;;22.00;79.00;100840.00;5075436;27;45438;-75
2021/09/15 09:12:23;;;;;;;;;12.67;12.00;;;;;22.06;78.68;100842.44;5051698;28;45505;-74
2021/09/15 09:14:49;;;;;;;;;15.67;15.67;;;;;22.14;78.30;100839.50;5065737;27;45532;-74
2021/09/15 09:17:34;;;;;;;;;19.33;15.33;;;;;22.18;79.16;100842.03;5066737;27;45739;-75
2021/09/15 09:20:22;;;;;;;;;15.67;14.67;;;;;22.28;78.72;100842.56;5033953;28;45604;-74
2021/09/15 09:23:13;;;;;;;;;14.00;13.33;;;;;22.37;78.46;100847.59;5074216;27;45651;-73
2021/09/15 09:26:04;;;;;;;;;19.00;16.67;;;;;22.43;78.59;100851.88;5072585;27;45552;-76
2021/09/15 09:28:32;;;;;;;;;15.00;14.33;;;;;22.46;78.11;100854.44;5068043;27;61120;-74
2021/09/15 09:31:04;;;;;;;;;23.00;18.33;;;;;22.48;77.94;100855.28;5076014;27;45763;-74
2021/09/15 09:33:29;;;;;;;;;19.67;17.67;;;;;22.52;78.02;100853.31;5074242;27;45934;-74
2021/09/15 09:36:01;;;;;;;;;18.67;14.67;;;;;22.57;78.12;100851.34;5053530;27;45446;-74
2021/09/15 09:38:59;;;;;;;;;20.67;17.00;;;;;22.58;76.82;100850.41;5071259;27;45722;-74
2021/09/15 09:41:24;;;;;;;;;22.00;17.33;;;;;22.56;78.32;100860.34;5048380;27;45965;-74
2021/09/15 09:43:51;;;;;;;;;18.33;16.00;;;;;22.53;78.21;100857.75;5070880;27;51790;-76
2021/09/15 09:46:18;;;;;;;;;23.00;18.33;;;;;22.51;77.90;100863.22;5074559;27;45519;-76
2021/09/15 09:48:54;;;;;;;;;21.33;18.00;;;;;22.48;77.57;100861.53;5070898;27;46640;-75
2021/09/15 09:51:35;;;;;;;;;16.00;14.00;;;;;22.41;77.93;100865.38;5069373;27;45552;-74
2021/09/15 09:54:08;;;;;;;;;18.67;17.33;;;;;22.34;77.98;100860.28;5071128;27;45319;-74
2021/09/15 09:56:34;;;;;;;;;20.00;17.67;;;;;22.27;78.65;100861.47;5073287;27;45581;-75
2021/09/15 09:59:00;;;;;;;;;17.33;16.67;;;;;22.22;79.23;100849.06;5078346;27;46303;-74
2021/09/15 10:01:25;;;;;;;;;18.33;16.33;;;;;22.22;80.44;100862.50;5055340;28;59825;-77
2021/09/15 10:03:50;;;;;;;;;20.67;20.67;;;;;22.27;79.81;100854.25;5055423;27;49766;-75
2021/09/15 10:06:16;;;;;;;;;19.00;16.00;;;;;22.37;79.52;100853.00;5077577;27;53494;-75
2021/09/15 10:08:42;;;;;;;;;20.67;16.33;;;;;22.48;79.27;100857.97;5070796;27;47808;-77
2021/09/15 10:11:07;;;;;;;;;13.00;10.67;;;;;22.60;78.44;100857.50;5058702;27;46426;-75
2021/09/15 10:13:33;;;;;;;;;11.33;11.33;;;;;22.69;77.86;100858.94;5032451;28;53664;-78
2021/09/15 10:16:02;;;;;;;;;7.00;7.00;;;;;22.72;77.08;100856.13;5053750;27;45506;-75
2021/09/15 10:18:28;;;;;;;;;12.00;8.00;;;;;22.75;77.72;100866.78;5073384;27;46263;-75
2021/09/15 10:20:54;;;;;;;;;10.33;9.33;;;;;22.78;77.14;100861.28;5075271;27;55215;-75
2021/09/15 10:23:32;;;;;;;;;11.00;11.00;;;;;22.79;77.05;100865.72;5078430;27;45362;-75
2021/09/15 10:25:58;;;;;;;;;12.33;11.00;;;;;22.78;77.39;100858.59;5079046;27;45436;-75
2021/09/15 10:28:23;;;;;;;;;15.00;13.33;;;;;22.82;76.65;100859.34;5082268;27;58787;-75
2021/09/15 10:30:50;;;;;;;;;14.67;13.67;;;;;22.83;76.81;100855.72;5075097;27;45784;-74
2021/09/15 10:33:35;;;;;;;;;17.33;16.33;;;;;22.90;77.19;100854.56;5078251;27;45483;-76
2021/09/15 10:36:00;;;;;;;;;19.00;18.00;;;;;22.97;76.92;100858.78;5090069;27;45513;-75
2021/09/15 10:38:55;;;;;;;;;28.00;22.00;;;;;23.11;76.14;100858.22;5078820;27;53862;-76
2021/09/15 10:41:42;;;;;;;;;18.67;18.00;;;;;23.32;76.75;100853.75;5073032;27;45496;-75
2021/09/15 10:44:14;;;;;;;;;18.33;16.00;;;;;23.55;75.89;100860.91;5077917;27;46004;-75
2021/09/15 10:46:41;;;;;;;;;23.33;19.33;;;;;23.74;75.62;100851.09;5077795;27;45497;-79
2021/09/15 10:49:39;;;;;;;;;18.00;15.33;;;;;23.95;75.21;100850.16;5082775;27;46498;-76
2021/09/15 10:52:10;;;;;;;;;13.67;12.67;;;;;24.11;74.65;100853.06;5081642;27;45416;-75
2021/09/15 10:54:39;;;;;;;;;9.33;9.00;;;;;24.28;73.53;100849.59;5093593;27;45404;-75
2021/09/15 10:57:15;;;;;;;;;11.00;11.00;;;;;24.45;73.42;100855.16;5085072;27;45460;-75
2021/09/15 10:59:50;;;;;;;;;13.67;11.00;;;;;24.52;73.24;100855.72;5087238;27;46598;-75
2021/09/15 11:02:27;;;;;;;;;10.00;10.00;;;;;24.55;73.39;100859.16;5075094;27;45330;-76
2021/09/15 11:04:54;;;;;;;;;12.00;10.33;;;;;24.60;71.93;100858.94;5078291;27;45484;-75
2021/09/15 11:07:45;;;;;;;;;13.33;13.33;;;;;24.52;72.77;100853.91;5073646;27;45373;-75
2021/09/15 11:10:13;;;;;;;;;10.00;9.00;;;;;24.42;72.28;100857.97;5071106;27;46232;-75
2021/09/15 11:12:43;;;;;;;;;9.00;7.67;;;;;24.29;72.11;100849.53;5071687;27;45563;-75
2021/09/15 11:15:23;;;;;;;;;9.67;8.00;;;;;24.16;72.91;100858.25;5074658;27;45512;-77
2021/09/15 11:17:49;;;;;;;;;13.00;13.00;;;;;24.09;73.82;100851.38;5082357;27;45628;-74
2021/09/15 11:20:14;;;;;;;;;12.00;12.00;;;;;24.13;73.57;100861.06;5076247;27;63172;-75
2021/09/15 11:22:39;;;;;;;;;13.67;10.33;;;;;24.28;74.02;100852.28;5061155;28;58568;-75